Time;durP1;ratioP1;P1;durP2;ratioP2;P2;SDS_P1;SDS_P2;PMS_P1;PMS_P2;Temp;Humidity;BMP_temperature;BMP_pressure;BME280_temperature;BME280_humidity;BME280_pressure;Samples;Min_cycle;Max_cycle;Signal;HPM_P1;HPM_P2
2022/01/10 00:00:32;;;;;;;15.90;2.72;;;26.20;99.90;;;;;;5081947;28;20197;-80
2022/01/10 00:03:04;;;;;;;14.52;2.83;;;26.10;99.90;;;;;;5073345;28;20192;-81
2022/01/10 00:05:35;;;;;;;13.48;2.78;;;26.10;99.90;;;;;;5088592;28;20192;-81
2022/01/10 00:08:05;;;;;;;17.02;2.58;;;26.10;99.90;;;;;;5081144;28;20255;-80
2022/01/10 00:10:36;;;;;;;19.23;2.88;;;26.10;99.90;;;;;;5074662;28;20213;-81
2022/01/10 00:13:07;;;;;;;15.27;2.72;;;26.00;99.90;;;;;;5072535;28;20258;-80
2022/01/10 00:15:40;;;;;;;12.13;2.65;;;26.00;99.90;;;;;;5079417;28;20193;-81
2022/01/10 00:18:11;;;;;;;14.88;2.65;;;25.90;99.90;;;;;;5073102;28;20192;-81
2022/01/10 00:20:42;;;;;;;13.77;2.60;;;25.90;99.90;;;;;;5072886;28;20197;-80
2022/01/10 00:23:12;;;;;;;13.63;2.70;;;25.80;99.90;;;;;;5077575;28;20180;-81
2022/01/10 00:25:43;;;;;;;14.73;2.40;;;25.70;99.90;;;;;;5073080;28;20188;-81
2022/01/10 00:28:13;;;;;;;12.23;2.70;;;25.60;99.90;;;;;;5076763;28;20193;-81
2022/01/10 00:30:46;;;;;;;14.00;2.55;;;25.50;99.90;;;;;;5077189;28;20219;-81
2022/01/10 00:33:16;;;;;;;19.90;3.00;;;25.50;99.90;;;;;;5074174;28;20720;-80
2022/01/10 00:35:47;;;;;;;19.95;3.13;;;25.50;99.90;;;;;;5076596;28;20189;-81
2022/01/10 00:38:18;;;;;;;21.25;3.25;;;25.40;99.90;;;;;;5072168;28;20199;-80
2022/01/10 00:40:50;;;;;;;17.33;2.65;;;25.40;99.90;;;;;;5056151;28;20662;-80
2022/01/10 00:43:30;;;;;;;16.92;2.83;;;25.50;99.90;;;;;;5073090;28;20193;-81
2022/01/10 00:46:04;;;;;;;15.05;2.63;;;25.50;99.90;;;;;;5076057;28;20199;-80
2022/01/10 00:48:35;;;;;;;13.25;2.85;;;25.50;99.90;;;;;;5076074;28;20200;-80
2022/01/10 00:51:06;;;;;;;14.70;2.85;;;25.50;99.90;;;;;;5078612;28;20212;-81
2022/01/10 00:53:36;;;;;;;13.27;2.95;;;25.50;99.90;;;;;;5084554;28;20185;-80
2022/01/10 00:56:09;;;;;;;13.00;2.65;;;25.60;99.90;;;;;;5074503;28;20692;-80
2022/01/10 00:58:39;;;;;;;16.95;2.83;;;25.70;99.90;;;;;;5081061;28;20196;-80
2022/01/10 01:01:12;;;;;;;15.20;2.83;;;25.90;99.90;;;;;;5075719;28;20243;-80
2022/01/10 01:03:43;;;;;;;13.25;2.55;;;26.00;99.90;;;;;;5078034;28;20197;-80
2022/01/10 01:06:14;;;;;;;19.05;2.75;;;26.30;99.90;;;;;;5087239;28;20184;-81
2022/01/10 01:08:45;;;;;;;13.32;2.63;;;26.50;99.90;;;;;;5077762;28;20219;-81
2022/01/10 01:14:26;;;;;;;14.52;3.03;;;26.70;99.90;;;;;;5043506;28;20463;-81
2022/01/10 01:17:10;;;;;;;15.20;2.50;;;26.80;99.90;;;;;;5041488;28;20630;-81
2022/01/10 01:20:07;;;;;;;12.90;2.60;;;26.90;99.90;;;;;;5075944;28;20192;-80
2022/01/10 01:25:24;;;;;;;15.55;2.80;;;26.70;99.90;;;;;;5075360;28;20189;-81
2022/01/10 01:27:55;;;;;;;12.80;2.60;;;26.50;99.90;;;;;;5077822;28;20189;-81
2022/01/10 01:30:26;;;;;;;13.68;2.65;;;26.50;99.90;;;;;;5066524;28;20217;-81
2022/01/10 01:32:59;;;;;;;13.57;2.70;;;26.50;99.90;;;;;;5074523;28;20193;-80
2022/01/10 01:35:30;;;;;;;14.70;2.63;;;26.70;99.90;;;;;;5070718;28;20225;-81
2022/01/10 01:38:00;;;;;;;13.93;2.78;;;26.70;99.90;;;;;;5066895;28;20196;-80
2022/01/10 01:40:32;;;;;;;13.88;2.28;;;26.90;99.90;;;;;;5074280;28;20208;-81
2022/01/10 01:43:03;;;;;;;16.65;2.75;;;27.10;99.90;;;;;;5068833;28;20644;-81
2022/01/10 01:45:45;;;;;;;12.35;2.42;;;27.20;99.90;;;;;;5074724;28;20201;-79
2022/01/10 01:48:18;;;;;;;12.02;2.35;;;27.10;99.90;;;;;;5059821;28;20661;-80
2022/01/10 01:50:48;;;;;;;10.80;2.28;;;27.00;99.90;;;;;;5054722;28;20267;-81
2022/01/10 01:53:19;;;;;;;11.93;2.58;;;26.80;99.90;;;;;;5063584;28;20258;-79
2022/01/10 01:55:50;;;;;;;14.43;2.55;;;26.60;99.90;;;;;;5071491;28;20221;-81
2022/01/10 01:58:23;;;;;;;17.13;2.90;;;26.50;99.90;;;;;;5074956;28;20279;-80
2022/01/10 02:00:54;;;;;;;17.13;2.60;;;26.20;99.90;;;;;;5074876;28;20185;-80
2022/01/10 02:03:27;;;;;;;11.90;2.55;;;26.00;99.90;;;;;;5075131;28;20193;-79
2022/01/10 02:06:00;;;;;;;17.70;2.60;;;25.80;99.90;;;;;;5074747;28;20197;-79
2022/01/10 02:08:31;;;;;;;13.82;2.72;;;25.70;99.90;;;;;;5074605;28;20201;-77
2022/01/10 02:11:01;;;;;;;14.30;2.80;;;25.60;99.90;;;;;;5074797;28;20216;-78
2022/01/10 02:13:32;;;;;;;14.65;2.88;;;25.60;99.90;;;;;;5074756;28;20232;-79
2022/01/10 02:16:05;;;;;;;16.27;2.97;;;25.60;99.90;;;;;;5074432;28;20197;-78
2022/01/10 02:18:38;;;;;;;16.17;2.78;;;25.70;99.90;;;;;;5064539;28;20547;-78
2022/01/10 02:21:11;;;;;;;14.23;2.83;;;26.00;99.90;;;;;;5074635;28;20193;-79
2022/01/10 02:23:41;;;;;;;21.50;3.42;;;26.30;99.90;;;;;;5074037;28;20185;-80
2022/01/10 02:26:12;;;;;;;22.60;3.00;;;26.60;99.90;;;;;;5073392;28;20197;-81
2022/01/10 02:28:44;;;;;;;17.30;2.83;;;26.70;99.90;;;;;;5074269;28;20198;-80
2022/01/10 02:31:15;;;;;;;18.55;3.00;;;27.00;99.90;;;;;;5074447;28;20278;-81
2022/01/10 02:33:46;;;;;;;17.52;2.90;;;27.00;99.90;;;;;;5074249;28;20189;-80
2022/01/10 02:36:24;;;;;;;17.13;2.70;;;27.20;99.90;;;;;;5073287;28;20181;-81
2022/01/10 02:38:56;;;;;;;14.57;2.70;;;27.40;99.90;;;;;;5074705;28;20234;-80
2022/01/10 02:41:30;;;;;;;14.18;2.72;;;27.40;99.90;;;;;;5074042;28;20200;-81
2022/01/10 02:44:02;;;;;;;13.07;2.70;;;27.60;99.90;;;;;;5074141;28;20197;-80
2022/01/10 02:46:35;;;;;;;15.00;2.90;;;27.40;99.90;;;;;;5074090;28;20193;-80
2022/01/10 02:49:11;;;;;;;12.45;2.47;;;27.40;99.90;;;;;;5072846;28;20272;-80
2022/01/10 02:51:44;;;;;;;11.13;2.60;;;27.40;99.90;;;;;;5073693;28;20216;-81
2022/01/10 02:54:14;;;;;;;11.10;2.38;;;27.50;99.90;;;;;;5073733;28;20612;-79
2022/01/10 02:56:52;;;;;;;12.05;2.65;;;27.60;99.90;;;;;;5071854;28;20224;-81
2022/01/10 02:59:24;;;;;;;12.07;2.33;;;27.60;99.90;;;;;;5073864;28;20279;-81
2022/01/10 03:01:55;;;;;;;15.52;2.45;;;27.70;99.90;;;;;;5074022;28;20197;-81
2022/01/10 03:04:25;;;;;;;13.40;2.08;;;27.90;99.90;;;;;;5054183;28;20611;-81
2022/01/10 03:06:58;;;;;;;12.38;2.15;;;27.80;99.90;;;;;;5053724;28;20657;-81
2022/01/10 03:09:29;;;;;;;8.48;2.30;;;27.70;99.90;;;;;;5053906;28;20280;-80
2022/01/10 03:11:59;;;;;;;16.98;2.50;;;27.90;99.90;;;;;;5053747;28;20221;-81
2022/01/10 03:14:30;;;;;;;16.38;2.70;;;27.80;99.90;;;;;;5056298;28;20229;-81
2022/01/10 03:17:05;;;;;;;11.43;2.30;;;27.90;99.90;;;;;;5073674;28;20762;-81
2022/01/10 03:19:36;;;;;;;14.50;2.63;;;27.90;99.90;;;;;;5073405;28;20196;-81
2022/01/10 03:22:10;;;;;;;15.25;2.60;;;27.70;99.90;;;;;;5073467;28;20189;-82
2022/01/10 03:24:40;;;;;;;11.60;2.15;;;27.80;99.90;;;;;;5072444;28;20246;-80
2022/01/10 03:27:11;;;;;;;15.48;2.67;;;27.90;99.90;;;;;;5073454;28;20204;-80
2022/01/10 03:29:41;;;;;;;9.18;2.22;;;27.80;99.90;;;;;;5073447;28;20599;-81
2022/01/10 03:32:12;;;;;;;13.88;2.10;;;27.70;99.90;;;;;;5073172;28;20197;-81
2022/01/10 03:34:43;;;;;;;14.35;2.38;;;27.80;99.90;;;;;;5073318;28;20196;-81
2022/01/10 03:37:15;;;;;;;16.60;2.50;;;27.70;99.90;;;;;;5073318;28;20200;-81
2022/01/10 03:39:46;;;;;;;12.15;2.13;;;27.50;99.90;;;;;;5072640;28;20573;-80
2022/01/10 03:42:16;;;;;;;10.70;2.35;;;27.50;99.90;;;;;;5073141;28;20239;-81
2022/01/10 03:44:47;;;;;;;10.77;2.33;;;27.40;99.90;;;;;;5072714;28;20671;-80
2022/01/10 03:47:20;;;;;;;10.27;1.90;;;27.40;99.90;;;;;;5053496;28;20186;-80
2022/01/10 03:49:51;;;;;;;17.02;2.20;;;27.40;99.90;;;;;;5053018;28;20197;-81
2022/01/10 03:52:25;;;;;;;12.77;1.98;;;27.50;99.90;;;;;;5072807;28;20591;-80
2022/01/10 03:54:56;;;;;;;19.33;2.65;;;27.50;99.90;;;;;;5068239;28;20224;-80
2022/01/10 03:57:27;;;;;;;12.23;2.13;;;27.60;99.90;;;;;;5064142;28;20216;-81
2022/01/10 03:59:58;;;;;;;13.45;1.95;;;27.60;99.90;;;;;;5071199;28;20628;-81
2022/01/10 04:02:31;;;;;;;13.00;2.42;;;27.60;99.90;;;;;;5073664;28;20207;-83
2022/01/10 04:05:01;;;;;;;11.70;2.20;;;27.60;99.90;;;;;;5073743;28;20192;-81
2022/01/10 04:07:35;;;;;;;13.00;2.30;;;27.40;99.90;;;;;;5090181;28;20184;-81
2022/01/10 04:10:06;;;;;;;14.90;3.08;;;27.40;99.90;;;;;;5074233;28;20292;-81
2022/01/10 04:12:37;;;;;;;18.60;2.58;;;27.30;99.90;;;;;;5075152;28;20598;-83
2022/01/10 04:15:09;;;;;;;10.20;2.00;;;27.50;99.90;;;;;;5075063;28;20688;-80
2022/01/10 04:17:40;;;;;;;10.65;1.83;;;27.50;99.90;;;;;;5091318;28;20268;-79
2022/01/10 04:20:11;;;;;;;11.55;2.28;;;27.40;99.90;;;;;;5089333;28;20192;-79
2022/01/10 04:22:44;;;;;;;13.50;1.90;;;27.50;99.90;;;;;;5074855;28;20200;-80
2022/01/10 04:25:16;;;;;;;10.57;2.30;;;27.60;99.90;;;;;;5073806;28;20197;-80
2022/01/10 04:27:46;;;;;;;9.10;2.03;;;27.60;99.90;;;;;;5075657;28;20184;-81
2022/01/10 04:30:18;;;;;;;10.65;2.15;;;27.50;99.90;;;;;;5073026;28;20193;-80
2022/01/10 04:32:49;;;;;;;14.57;2.00;;;27.50;99.90;;;;;;5082109;28;20551;-80
2022/01/10 04:35:20;;;;;;;11.55;2.00;;;27.50;99.90;;;;;;5059793;28;20251;-79
2022/01/10 04:37:53;;;;;;;10.23;2.53;;;27.60;99.90;;;;;;5064861;28;20208;-79
2022/01/10 04:40:25;;;;;;;10.70;2.20;;;27.70;99.90;;;;;;5089985;28;20241;-80
2022/01/10 04:42:55;;;;;;;16.55;2.00;;;27.60;99.90;;;;;;5069536;28;20645;-79
2022/01/10 04:45:26;;;;;;;12.20;2.22;;;27.50;99.90;;;;;;5062212;28;20185;-80
2022/01/10 04:47:57;;;;;;;9.75;1.92;;;27.50;99.90;;;;;;5056249;28;20198;-80
2022/01/10 04:53:22;;;;;;;7.57;1.75;;;27.40;99.90;;;;;;5060997;28;20667;-80
2022/01/10 04:55:54;;;;;;;11.32;1.90;;;27.40;99.90;;;;;;5089268;28;20199;-80
2022/01/10 04:58:24;;;;;;;8.02;2.00;;;27.40;99.90;;;;;;5055532;28;20653;-80
2022/01/10 05:00:55;;;;;;;10.75;2.10;;;27.40;99.90;;;;;;5083887;28;20192;-83
2022/01/10 05:03:26;;;;;;;8.85;1.67;;;27.40;99.90;;;;;;5077257;28;20203;-81
2022/01/10 05:05:57;;;;;;;12.18;1.98;;;27.40;99.90;;;;;;5074315;28;20635;-78
2022/01/10 05:08:33;;;;;;;9.75;1.90;;;27.40;99.90;;;;;;5075169;28;20201;-79
2022/01/10 05:11:04;;;;;;;9.88;1.70;;;27.50;99.90;;;;;;5070190;28;20313;-83
2022/01/10 05:13:43;;;;;;;13.18;2.00;;;27.40;99.90;;;;;;5073751;28;20612;-81
2022/01/10 05:16:15;;;;;;;12.38;2.00;;;27.30;99.90;;;;;;5084047;28;20605;-83
2022/01/10 05:18:46;;;;;;;9.85;1.98;;;27.30;99.90;;;;;;5060046;28;20654;-82
2022/01/10 05:21:17;;;;;;;9.90;1.98;;;27.30;99.90;;;;;;5070664;28;20242;-81
2022/01/10 05:23:50;;;;;;;13.85;2.20;;;27.40;99.90;;;;;;5081339;28;20257;-79
2022/01/10 05:26:21;;;;;;;9.25;1.83;;;27.40;99.90;;;;;;5056835;28;20193;-80
2022/01/10 05:28:53;;;;;;;10.68;2.20;;;27.50;99.90;;;;;;5073333;28;20208;-80
2022/01/10 05:31:23;;;;;;;9.02;1.85;;;27.50;99.90;;;;;;5060382;28;20221;-80
2022/01/10 05:33:58;;;;;;;13.68;2.13;;;27.50;99.90;;;;;;5075256;28;20558;-80
2022/01/10 05:36:32;;;;;;;10.50;2.00;;;27.50;99.90;;;;;;5055790;28;20540;-80
2022/01/10 05:39:10;;;;;;;10.40;1.90;;;27.40;99.90;;;;;;5070833;28;20199;-81
2022/01/10 05:41:41;;;;;;;13.15;2.13;;;27.30;99.90;;;;;;5083627;28;20199;-80
2022/01/10 05:44:12;;;;;;;12.60;2.42;;;27.30;99.90;;;;;;5074053;28;20204;-81
2022/01/10 05:46:43;;;;;;;11.68;2.20;;;27.20;99.90;;;;;;5093300;28;20189;-81
2022/01/10 05:49:14;;;;;;;13.63;2.30;;;27.20;99.90;;;;;;5091533;28;20199;-80
2022/01/10 05:51:45;;;;;;;11.55;2.13;;;27.10;99.90;;;;;;5094232;28;20216;-79
2022/01/10 05:54:17;;;;;;;14.63;2.75;;;27.10;99.90;;;;;;5084376;28;20195;-79
2022/01/10 05:56:48;;;;;;;12.88;2.40;;;27.20;99.90;;;;;;5077130;28;20556;-81
2022/01/10 05:59:19;;;;;;;13.80;2.33;;;27.20;99.90;;;;;;5077434;28;20315;-80
2022/01/10 06:01:49;;;;;;;11.05;2.30;;;27.20;99.90;;;;;;5080139;28;20191;-80
2022/01/10 06:04:20;;;;;;;17.17;3.33;;;27.20;99.90;;;;;;5093422;28;20593;-81
2022/01/10 06:06:51;;;;;;;14.43;2.50;;;27.20;99.90;;;;;;5091728;28;20660;-79
2022/01/10 06:09:26;;;;;;;13.65;2.22;;;27.20;99.90;;;;;;5075520;28;20683;-81
2022/01/10 06:11:56;;;;;;;14.18;2.08;;;27.00;99.90;;;;;;5081227;28;20211;-80
2022/01/10 06:14:27;;;;;;;12.48;2.25;;;27.10;99.90;;;;;;5078245;28;20224;-79
2022/01/10 06:16:58;;;;;;;11.05;2.22;;;26.90;99.90;;;;;;5076969;28;20189;-78
2022/01/10 06:19:29;;;;;;;11.80;2.17;;;26.90;99.90;;;;;;5074669;28;20652;-79
2022/01/10 06:22:02;;;;;;;12.52;2.95;;;26.90;99.90;;;;;;5078277;28;20189;-79
2022/01/10 06:24:35;;;;;;;11.00;2.13;;;26.80;99.90;;;;;;5090713;28;20192;-78
2022/01/10 06:27:05;;;;;;;13.50;2.22;;;26.70;99.90;;;;;;5075469;28;20641;-78
2022/01/10 06:29:36;;;;;;;11.13;2.13;;;26.60;99.90;;;;;;5074658;28;20648;-79
2022/01/10 06:32:07;;;;;;;14.15;2.60;;;26.60;99.90;;;;;;5094375;28;20220;-80
2022/01/10 06:34:38;;;;;;;14.57;2.65;;;26.70;99.90;;;;;;5086875;28;20185;-79
2022/01/10 06:37:09;;;;;;;11.07;2.13;;;26.70;99.90;;;;;;5078078;28;20188;-79
2022/01/10 06:39:44;;;;;;;13.90;2.75;;;26.70;99.90;;;;;;5094467;28;20241;-78
2022/01/10 06:42:14;;;;;;;9.25;2.20;;;26.60;99.90;;;;;;5074159;28;20193;-80
2022/01/10 06:44:45;;;;;;;14.32;2.10;;;26.60;99.90;;;;;;5073341;28;20189;-80
2022/01/10 06:47:16;;;;;;;11.77;2.60;;;26.70;99.90;;;;;;5073763;28;20189;-80
2022/01/10 06:49:46;;;;;;;14.02;2.75;;;26.80;99.90;;;;;;5073958;28;20189;-80
2022/01/10 06:52:17;;;;;;;14.02;2.50;;;26.70;99.90;;;;;;5073713;28;20216;-80
2022/01/10 06:54:50;;;;;;;14.63;2.60;;;26.70;99.90;;;;;;5073947;28;20250;-80
2022/01/10 06:57:20;;;;;;;15.07;2.58;;;26.70;99.90;;;;;;5072762;28;20282;-78
2022/01/10 06:59:51;;;;;;;11.77;2.33;;;26.70;99.90;;;;;;5073396;28;20633;-80
2022/01/10 07:02:22;;;;;;;12.65;2.50;;;26.70;99.90;;;;;;5073756;28;20202;-80
2022/01/10 07:04:53;;;;;;;18.83;2.50;;;26.80;99.90;;;;;;5073666;28;20189;-81
2022/01/10 07:07:23;;;;;;;14.32;2.20;;;26.80;99.90;;;;;;5073733;28;20275;-80
2022/01/10 07:09:56;;;;;;;12.27;2.10;;;26.80;99.90;;;;;;5073307;28;20185;-79
2022/01/10 07:12:27;;;;;;;11.82;2.13;;;26.80;99.90;;;;;;5073323;28;20220;-82
2022/01/10 07:14:57;;;;;;;10.85;2.22;;;26.70;99.90;;;;;;5073321;28;20286;-79
2022/01/10 07:17:29;;;;;;;9.80;2.00;;;26.50;99.90;;;;;;5073630;28;20189;-82
2022/01/10 07:20:00;;;;;;;9.48;1.88;;;26.50;99.90;;;;;;5073785;28;20358;-80
2022/01/10 07:22:31;;;;;;;13.80;2.33;;;26.50;99.90;;;;;;5073416;28;20193;-81
2022/01/10 07:25:03;;;;;;;11.13;1.90;;;26.40;99.90;;;;;;5073086;28;20193;-80
2022/01/10 07:27:34;;;;;;;11.63;2.00;;;26.40;99.90;;;;;;5072594;28;20195;-81
2022/01/10 07:30:05;;;;;;;10.63;1.90;;;26.30;99.90;;;;;;5073322;28;20186;-79
2022/01/10 07:32:36;;;;;;;11.73;2.20;;;26.30;99.90;;;;;;5073517;28;20221;-80
2022/01/10 07:35:10;;;;;;;16.70;2.55;;;26.20;99.90;;;;;;5072756;28;20211;-79
2022/01/10 07:37:41;;;;;;;16.00;2.20;;;26.20;99.90;;;;;;5073411;28;20231;-81
2022/01/10 07:40:14;;;;;;;12.23;2.13;;;26.10;99.90;;;;;;5076153;28;20185;-81
2022/01/10 07:42:45;;;;;;;13.85;2.50;;;26.10;99.90;;;;;;5073631;28;20197;-81
2022/01/10 07:45:16;;;;;;;14.75;2.88;;;26.10;99.90;;;;;;5073137;28;20644;-80
2022/01/10 07:47:46;;;;;;;11.68;2.33;;;26.10;99.90;;;;;;5072724;28;20192;-81
2022/01/10 07:50:18;;;;;;;14.00;2.35;;;26.10;99.90;;;;;;5073043;28;20196;-82
2022/01/10 07:52:49;;;;;;;10.18;1.90;;;25.90;99.90;;;;;;5072930;28;20731;-81
2022/01/10 07:55:22;;;;;;;11.95;2.05;;;25.70;99.90;;;;;;5073312;28;20656;-81
2022/01/10 07:57:52;;;;;;;11.32;2.30;;;25.60;99.90;;;;;;5069175;28;20216;-81
2022/01/10 08:00:23;;;;;;;12.52;2.35;;;25.50;99.90;;;;;;5072889;28;20193;-81
2022/01/10 08:02:54;;;;;;;15.85;2.53;;;25.40;99.90;;;;;;5072902;28;20193;-82
2022/01/10 08:05:24;;;;;;;12.15;2.15;;;25.40;99.90;;;;;;5072630;28;20189;-79
2022/01/10 08:07:55;;;;;;;9.32;2.30;;;25.30;99.90;;;;;;5072769;28;20251;-82
2022/01/10 08:10:28;;;;;;;12.27;2.45;;;25.30;99.90;;;;;;5072729;28;20262;-82
2022/01/10 08:12:58;;;;;;;15.25;2.42;;;25.20;99.90;;;;;;5072602;28;20228;-83
2022/01/10 08:15:30;;;;;;;20.70;3.20;;;25.20;99.90;;;;;;5072511;28;20229;-80
2022/01/10 08:18:01;;;;;;;10.70;2.50;;;25.30;99.90;;;;;;5072951;28;20189;-82
2022/01/10 08:20:31;;;;;;;11.55;2.38;;;25.30;99.90;;;;;;5072921;28;20193;-81
2022/01/10 08:23:05;;;;;;;14.55;2.65;;;25.30;99.90;;;;;;5072796;28;20204;-81
2022/01/10 08:25:38;;;;;;;13.20;2.38;;;25.30;99.90;;;;;;5073688;28;20644;-83
2022/01/10 08:28:09;;;;;;;11.27;2.53;;;25.30;99.90;;;;;;5083967;28;20275;-81
2022/01/10 08:30:40;;;;;;;16.40;2.60;;;25.20;99.90;;;;;;5072996;28;20667;-81
2022/01/10 08:33:10;;;;;;;10.80;2.70;;;25.20;99.90;;;;;;5072713;28;20681;-79
2022/01/10 08:35:41;;;;;;;17.65;2.50;;;25.10;99.90;;;;;;5072930;28;20197;-80
2022/01/10 08:38:12;;;;;;;17.13;2.63;;;25.10;99.90;;;;;;5071664;28;20189;-79
2022/01/10 08:40:44;;;;;;;16.05;3.03;;;25.00;99.90;;;;;;5072450;28;20185;-80
2022/01/10 08:43:16;;;;;;;13.73;2.80;;;25.00;99.90;;;;;;5072290;28;20200;-81
2022/01/10 08:45:47;;;;;;;15.35;3.03;;;24.90;99.90;;;;;;5072955;28;20185;-81
2022/01/10 08:48:17;;;;;;;14.10;2.97;;;24.90;99.90;;;;;;5076497;28;20197;-82
2022/01/10 08:50:48;;;;;;;13.45;3.00;;;24.90;99.90;;;;;;5076374;28;20192;-80
2022/01/10 08:53:19;;;;;;;15.27;2.90;;;24.90;99.90;;;;;;5076071;28;20270;-82
2022/01/10 08:55:51;;;;;;;19.65;3.13;;;24.90;99.90;;;;;;5076400;28;20193;-80
2022/01/10 08:58:26;;;;;;;20.45;3.15;;;24.90;99.90;;;;;;5075175;28;20724;-81
2022/01/10 09:00:57;;;;;;;18.00;3.10;;;24.80;99.90;;;;;;5076072;28;20683;-82
2022/01/10 09:03:27;;;;;;;21.05;3.38;;;24.80;99.90;;;;;;5076105;28;20201;-84
2022/01/10 09:05:58;;;;;;;13.68;2.90;;;24.80;99.90;;;;;;5076328;28;20204;-83
2022/01/10 09:08:36;;;;;;;15.52;2.90;;;24.70;99.90;;;;;;5075078;28;20200;-81
2022/01/10 09:11:09;;;;;;;17.40;3.80;;;24.70;99.90;;;;;;5075951;28;20197;-81
2022/01/10 09:13:40;;;;;;;15.30;3.40;;;24.70;99.90;;;;;;5075890;28;20237;-79
2022/01/10 09:16:11;;;;;;;15.88;2.97;;;24.60;99.90;;;;;;5075750;28;20197;-81
2022/01/10 09:18:42;;;;;;;13.85;3.25;;;24.60;99.90;;;;;;5075964;28;20189;-81
2022/01/10 09:21:13;;;;;;;16.33;3.00;;;24.60;99.90;;;;;;5075642;28;20192;-81
2022/01/10 09:23:43;;;;;;;17.50;3.15;;;24.60;99.90;;;;;;5075311;28;20193;-80
2022/01/10 09:26:16;;;;;;;17.33;3.42;;;24.60;99.90;;;;;;5075750;28;20193;-79
2022/01/10 09:28:47;;;;;;;15.45;3.40;;;24.60;99.90;;;;;;5075848;28;20649;-79
2022/01/10 09:31:18;;;;;;;17.90;3.70;;;24.60;99.90;;;;;;5075362;28;20185;-80
2022/01/10 09:33:53;;;;;;;16.80;3.65;;;24.50;99.90;;;;;;5075664;28;20224;-81
2022/01/10 09:36:25;;;;;;;16.60;3.33;;;24.50;99.90;;;;;;5075079;28;20271;-80
2022/01/10 09:38:57;;;;;;;17.85;3.28;;;24.50;99.90;;;;;;5075010;28;20211;-80
2022/01/10 09:41:30;;;;;;;14.73;2.95;;;24.50;99.90;;;;;;5075554;28;20234;-81
2022/01/10 09:44:02;;;;;;;21.70;3.90;;;24.50;99.90;;;;;;5075289;28;20561;-81
2022/01/10 09:46:33;;;;;;;19.85;3.65;;;24.50;99.90;;;;;;5075539;28;20200;-81
2022/01/10 09:49:05;;;;;;;21.27;3.47;;;24.50;99.90;;;;;;5075089;28;20231;-81
2022/01/10 09:51:36;;;;;;;16.73;3.20;;;24.50;99.90;;;;;;5074965;28;20201;-81
2022/01/10 09:54:06;;;;;;;22.42;3.45;;;24.50;99.90;;;;;;5074905;28;20220;-81
2022/01/10 09:56:40;;;;;;;15.73;3.28;;;24.50;99.90;;;;;;5075193;28;20185;-79
2022/01/10 09:59:11;;;;;;;23.33;3.47;;;24.50;99.90;;;;;;5070208;28;20229;-84
2022/01/10 10:01:41;;;;;;;15.98;3.45;;;24.40;99.90;;;;;;5074857;28;20238;-82
2022/01/10 10:04:13;;;;;;;17.42;3.33;;;24.40;99.90;;;;;;5074505;28;20185;-81
2022/01/10 10:06:44;;;;;;;19.45;3.58;;;24.40;99.90;;;;;;5074888;28;20203;-82
2022/01/10 10:09:16;;;;;;;21.23;3.70;;;24.30;99.90;;;;;;5074994;28;20204;-81
2022/01/10 10:11:51;;;;;;;17.45;3.60;;;24.40;99.90;;;;;;5074755;28;20192;-81
2022/01/10 10:14:23;;;;;;;16.73;3.78;;;24.40;99.90;;;;;;5074482;28;20285;-83
2022/01/10 10:16:56;;;;;;;18.40;3.08;;;24.30;99.90;;;;;;5074945;28;20193;-79
2022/01/10 10:19:28;;;;;;;24.00;3.65;;;24.30;99.90;;;;;;5074724;28;20280;-80
2022/01/10 10:22:00;;;;;;;22.20;3.40;;;24.30;99.90;;;;;;5074478;28;20196;-80
2022/01/10 10:24:31;;;;;;;15.85;3.38;;;24.30;99.90;;;;;;5074635;28;20189;-81
2022/01/10 10:27:04;;;;;;;12.88;3.35;;;24.30;99.90;;;;;;5074329;28;20196;-81
2022/01/10 10:29:35;;;;;;;15.93;3.58;;;24.20;99.90;;;;;;5074620;28;20250;-78
2022/01/10 10:32:09;;;;;;;20.65;3.58;;;24.20;99.90;;;;;;5074161;28;20200;-76
2022/01/10 10:34:39;;;;;;;16.90;3.45;;;24.20;99.90;;;;;;5073743;28;20184;-80
2022/01/10 10:37:12;;;;;;;17.40;3.60;;;24.20;99.90;;;;;;5074174;28;20189;-81
2022/01/10 10:39:43;;;;;;;20.38;3.70;;;24.20;99.90;;;;;;5074062;28;20189;-81
2022/01/10 10:42:17;;;;;;;16.33;3.60;;;24.20;99.90;;;;;;5075358;28;20815;-81
2022/01/10 10:44:48;;;;;;;17.33;3.47;;;24.20;99.90;;;;;;5092789;28;20200;-80
2022/01/10 10:47:22;;;;;;;22.40;3.53;;;24.20;99.90;;;;;;5085152;28;20212;-79
2022/01/10 10:49:58;;;;;;;23.92;3.97;;;24.10;99.90;;;;;;5073826;28;20189;-80
2022/01/10 10:52:34;;;;;;;19.95;3.60;;;24.10;99.90;;;;;;5073969;28;20255;-79
2022/01/10 10:55:07;;;;;;;21.83;3.50;;;24.10;99.90;;;;;;5073374;28;20196;-80
2022/01/10 10:57:40;;;;;;;18.60;3.65;;;24.10;99.90;;;;;;5073972;28;20193;-78
2022/01/10 11:00:14;;;;;;;17.10;3.55;;;24.10;99.90;;;;;;5073684;28;20591;-83
2022/01/10 11:02:46;;;;;;;16.00;3.17;;;24.10;99.90;;;;;;5073793;28;20236;-79
2022/01/10 11:05:17;;;;;;;23.38;3.65;;;24.10;99.90;;;;;;5073449;28;20199;-79
2022/01/10 11:07:51;;;;;;;22.63;3.78;;;24.10;99.90;;;;;;5073056;28;20254;-79
2022/01/10 11:10:23;;;;;;;18.35;3.80;;;24.10;99.90;;;;;;5073440;28;20195;-81
2022/01/10 11:12:59;;;;;;;19.10;4.00;;;24.10;99.90;;;;;;5073762;28;20243;-80
2022/01/10 11:15:38;;;;;;;19.15;3.90;;;24.10;99.90;;;;;;5073898;28;20232;-80
2022/01/10 11:18:12;;;;;;;21.90;3.75;;;24.10;99.90;;;;;;5073061;28;20291;-80
2022/01/10 11:20:46;;;;;;;17.70;3.47;;;24.10;99.90;;;;;;5073482;28;20192;-80
2022/01/10 11:23:17;;;;;;;20.48;3.65;;;24.10;99.90;;;;;;5073453;28;20196;-81
2022/01/10 11:25:48;;;;;;;22.83;3.72;;;24.00;99.90;;;;;;5073592;28;20189;-81
2022/01/10 11:28:26;;;;;;;16.45;3.60;;;24.00;99.90;;;;;;5073316;28;20189;-81
2022/01/10 11:31:02;;;;;;;17.85;3.45;;;24.00;99.90;;;;;;5073280;28;20196;-79
2022/01/10 11:33:41;;;;;;;16.88;3.25;;;24.00;99.90;;;;;;5073197;28;20524;-80
2022/01/10 11:36:13;;;;;;;19.48;3.97;;;24.00;99.90;;;;;;5072921;28;20195;-78
2022/01/10 11:38:45;;;;;;;18.25;3.63;;;24.00;99.90;;;;;;5073364;28;20766;-78
2022/01/10 11:41:16;;;;;;;22.00;3.92;;;24.00;99.90;;;;;;5073280;28;20203;-79
2022/01/10 11:43:53;;;;;;;17.63;3.47;;;24.00;99.90;;;;;;5073129;28;20193;-80
2022/01/10 11:46:28;;;;;;;19.75;3.67;;;24.00;99.90;;;;;;5073234;28;20192;-79
2022/01/10 11:49:04;;;;;;;18.77;3.67;;;23.90;99.90;;;;;;5073208;28;20228;-78
2022/01/10 11:51:37;;;;;;;20.23;3.70;;;23.90;99.90;;;;;;5053105;28;20668;-80
2022/01/10 11:54:13;;;;;;;15.45;3.40;;;24.00;99.90;;;;;;5053005;28;20221;-79
2022/01/10 11:56:45;;;;;;;20.05;3.65;;;23.90;99.90;;;;;;5052996;28;20557;-80
2022/01/10 11:59:23;;;;;;;17.40;4.15;;;23.90;99.90;;;;;;5059284;28;20225;-80
2022/01/10 12:01:59;;;;;;;13.63;3.60;;;23.90;99.90;;;;;;5072358;28;20201;-80
2022/01/10 12:04:31;;;;;;;17.48;3.60;;;23.90;99.90;;;;;;5072605;28;20206;-78
2022/01/10 12:07:03;;;;;;;15.75;3.55;;;23.90;99.90;;;;;;5072404;28;20197;-79
2022/01/10 12:09:33;;;;;;;17.83;3.55;;;23.90;99.90;;;;;;5072878;28;20597;-79
2022/01/10 12:12:05;;;;;;;15.65;3.15;;;23.90;99.90;;;;;;5073497;28;20189;-80
2022/01/10 12:14:37;;;;;;;16.25;3.63;;;23.90;99.90;;;;;;5073059;28;20244;-79
2022/01/10 12:17:09;;;;;;;15.60;3.60;;;23.90;99.90;;;;;;5072942;28;20189;-79
2022/01/10 12:19:40;;;;;;;13.55;3.15;;;23.90;99.90;;;;;;5073146;28;20280;-79
2022/01/10 12:22:11;;;;;;;17.42;3.70;;;24.00;99.90;;;;;;5075946;28;20231;-78
2022/01/10 12:24:44;;;;;;;19.77;4.00;;;23.90;99.90;;;;;;5076910;28;20530;-80
2022/01/10 12:27:15;;;;;;;19.02;3.80;;;24.00;99.90;;;;;;5076964;28;20189;-80
2022/01/10 12:29:48;;;;;;;14.32;3.50;;;24.00;99.90;;;;;;5077096;28;20193;-79
2022/01/10 12:32:19;;;;;;;16.77;3.47;;;24.00;99.90;;;;;;5076798;28;20599;-80
2022/01/10 12:34:58;;;;;;;22.83;4.15;;;24.00;99.90;;;;;;5076826;28;20232;-78
2022/01/10 12:37:28;;;;;;;14.88;3.40;;;24.00;99.90;;;;;;5076689;28;20553;-80
2022/01/10 12:39:59;;;;;;;17.77;3.42;;;24.00;99.90;;;;;;5076865;28;20641;-80
2022/01/10 12:42:30;;;;;;;16.40;3.55;;;24.00;99.90;;;;;;5076752;28;20188;-79
2022/01/10 12:45:02;;;;;;;16.00;3.47;;;24.00;99.90;;;;;;5076490;28;20239;-80
2022/01/10 12:47:33;;;;;;;12.25;3.33;;;24.00;99.90;;;;;;5076601;28;20193;-79
2022/01/10 12:50:04;;;;;;;16.45;3.40;;;24.00;99.90;;;;;;5076646;28;20189;-79
2022/01/10 12:52:37;;;;;;;18.00;3.60;;;24.00;99.90;;;;;;5076480;28;20192;-79
2022/01/10 12:55:09;;;;;;;16.52;3.58;;;24.00;99.90;;;;;;5076069;28;20296;-80
2022/01/10 12:57:39;;;;;;;14.95;3.55;;;24.00;99.90;;;;;;5076517;28;20190;-79
2022/01/10 13:00:13;;;;;;;20.75;4.10;;;24.00;99.90;;;;;;5072445;28;20232;-80
2022/01/10 13:02:44;;;;;;;15.90;3.60;;;24.00;99.90;;;;;;5073434;28;20686;-79
2022/01/10 13:05:15;;;;;;;13.90;3.58;;;23.90;99.90;;;;;;5074755;28;20584;-79
2022/01/10 13:07:47;;;;;;;19.73;3.70;;;24.00;99.90;;;;;;5075989;28;20197;-79
2022/01/10 13:10:22;;;;;;;18.05;3.47;;;23.90;99.90;;;;;;5075670;28;20236;-81